sensor_id;sensor_type;location;lat;lon;timestamp;P1;durP1;ratioP1;P2;durP2;ratioP2
70322;SDS011;57735;56.264;43.898;2023-12-20T00:02:22;2.75;;;1.73;;
70322;SDS011;57735;56.264;43.898;2023-12-20T00:04:53;4.65;;;2.38;;
70322;SDS011;57735;56.264;43.898;2023-12-20T00:07:27;4.35;;;1.95;;
70322;SDS011;57735;56.264;43.898;2023-12-20T00:09:57;4.13;;;2.10;;
70322;SDS011;57735;56.264;43.898;2023-12-20T00:12:28;3.60;;;2.35;;
70322;SDS011;57735;56.264;43.898;2023-12-20T00:14:59;4.65;;;1.80;;
70322;SDS011;57735;56.264;43.898;2023-12-20T00:17:30;3.65;;;2.00;;
70322;SDS011;57735;56.264;43.898;2023-12-20T00:20:00;2.92;;;1.77;;
70322;SDS011;57735;56.264;43.898;2023-12-20T00:22:34;2.42;;;1.70;;
70322;SDS011;57735;56.264;43.898;2023-12-20T00:25:05;2.95;;;1.70;;
70322;SDS011;57735;56.264;43.898;2023-12-20T00:27:37;2.17;;;1.48;;
70322;SDS011;57735;56.264;43.898;2023-12-20T00:30:08;2.08;;;1.20;;
70322;SDS011;57735;56.264;43.898;2023-12-20T00:32:45;1.83;;;1.38;;
70322;SDS011;57735;56.264;43.898;2023-12-20T00:35:18;1.98;;;1.20;;
70322;SDS011;57735;56.264;43.898;2023-12-20T00:37:54;2.42;;;1.50;;
70322;SDS011;57735;56.264;43.898;2023-12-20T00:40:24;2.05;;;1.33;;
70322;SDS011;57735;56.264;43.898;2023-12-20T00:42:55;1.77;;;1.38;;
70322;SDS011;57735;56.264;43.898;2023-12-20T00:45:26;2.10;;;1.50;;
70322;SDS011;57735;56.264;43.898;2023-12-20T00:47:57;2.40;;;1.65;;
70322;SDS011;57735;56.264;43.898;2023-12-20T00:50:29;2.15;;;1.60;;
70322;SDS011;57735;56.264;43.898;2023-12-20T00:53:00;2.58;;;1.65;;
70322;SDS011;57735;56.264;43.898;2023-12-20T00:55:31;2.95;;;1.80;;
70322;SDS011;57735;56.264;43.898;2023-12-20T00:58:01;2.78;;;1.63;;
70322;SDS011;57735;56.264;43.898;2023-12-20T01:00:32;3.40;;;1.90;;
70322;SDS011;57735;56.264;43.898;2023-12-20T01:03:03;2.72;;;1.58;;
70322;SDS011;57735;56.264;43.898;2023-12-20T01:05:34;3.13;;;1.80;;
70322;SDS011;57735;56.264;43.898;2023-12-20T01:08:05;5.18;;;1.75;;
70322;SDS011;57735;56.264;43.898;2023-12-20T01:10:36;3.08;;;2.05;;
70322;SDS011;57735;56.264;43.898;2023-12-20T01:13:07;4.10;;;2.50;;
70322;SDS011;57735;56.264;43.898;2023-12-20T01:15:39;6.00;;;2.38;;
70322;SDS011;57735;56.264;43.898;2023-12-20T01:18:10;5.85;;;2.15;;
70322;SDS011;57735;56.264;43.898;2023-12-20T01:20:40;6.28;;;2.70;;
70322;SDS011;57735;56.264;43.898;2023-12-20T01:23:13;4.45;;;2.60;;
70322;SDS011;57735;56.264;43.898;2023-12-20T01:25:44;3.83;;;2.28;;
70322;SDS011;57735;56.264;43.898;2023-12-20T01:28:15;4.35;;;2.25;;
70322;SDS011;57735;56.264;43.898;2023-12-20T01:30:46;4.30;;;2.58;;
70322;SDS011;57735;56.264;43.898;2023-12-20T01:33:17;4.63;;;2.25;;
70322;SDS011;57735;56.264;43.898;2023-12-20T01:35:48;5.65;;;2.50;;
70322;SDS011;57735;56.264;43.898;2023-12-20T01:38:18;5.32;;;2.63;;
70322;SDS011;57735;56.264;43.898;2023-12-20T01:40:50;5.35;;;2.80;;
70322;SDS011;57735;56.264;43.898;2023-12-20T01:43:21;4.57;;;2.30;;
70322;SDS011;57735;56.264;43.898;2023-12-20T01:45:52;7.18;;;2.65;;
70322;SDS011;57735;56.264;43.898;2023-12-20T01:48:23;4.40;;;2.85;;
70322;SDS011;57735;56.264;43.898;2023-12-20T01:50:55;4.57;;;2.35;;
70322;SDS011;57735;56.264;43.898;2023-12-20T01:53:26;3.30;;;2.00;;
70322;SDS011;57735;56.264;43.898;2023-12-20T01:55:58;3.95;;;2.00;;
70322;SDS011;57735;56.264;43.898;2023-12-20T01:58:29;4.45;;;2.33;;
70322;SDS011;57735;56.264;43.898;2023-12-20T02:01:00;3.72;;;1.98;;
70322;SDS011;57735;56.264;43.898;2023-12-20T02:03:31;4.45;;;1.85;;
70322;SDS011;57735;56.264;43.898;2023-12-20T02:06:03;2.58;;;1.67;;
70322;SDS011;57735;56.264;43.898;2023-12-20T02:08:35;3.90;;;1.67;;
70322;SDS011;57735;56.264;43.898;2023-12-20T02:11:09;3.85;;;2.00;;
70322;SDS011;57735;56.264;43.898;2023-12-20T02:13:40;3.55;;;2.13;;
70322;SDS011;57735;56.264;43.898;2023-12-20T02:16:12;2.08;;;1.40;;
70322;SDS011;57735;56.264;43.898;2023-12-20T02:18:43;2.90;;;2.03;;
70322;SDS011;57735;56.264;43.898;2023-12-20T02:21:14;3.00;;;1.92;;
70322;SDS011;57735;56.264;43.898;2023-12-20T02:23:45;3.05;;;1.85;;
70322;SDS011;57735;56.264;43.898;2023-12-20T02:26:16;2.50;;;1.88;;
70322;SDS011;57735;56.264;43.898;2023-12-20T02:28:48;2.92;;;1.90;;
70322;SDS011;57735;56.264;43.898;2023-12-20T02:31:23;3.53;;;1.90;;
70322;SDS011;57735;56.264;43.898;2023-12-20T02:33:54;3.45;;;1.85;;
70322;SDS011;57735;56.264;43.898;2023-12-20T02:36:24;3.78;;;1.90;;
70322;SDS011;57735;56.264;43.898;2023-12-20T02:38:55;2.78;;;1.65;;
70322;SDS011;57735;56.264;43.898;2023-12-20T02:41:26;3.10;;;2.15;;
70322;SDS011;57735;56.264;43.898;2023-12-20T02:43:57;2.95;;;1.88;;
70322;SDS011;57735;56.264;43.898;2023-12-20T02:46:28;5.15;;;1.48;;
70322;SDS011;57735;56.264;43.898;2023-12-20T02:48:59;3.95;;;2.10;;
70322;SDS011;57735;56.264;43.898;2023-12-20T02:51:29;3.83;;;2.25;;
70322;SDS011;57735;56.264;43.898;2023-12-20T02:54:00;4.75;;;2.13;;
70322;SDS011;57735;56.264;43.898;2023-12-20T02:56:34;3.63;;;2.40;;
70322;SDS011;57735;56.264;43.898;2023-12-20T02:59:05;3.40;;;2.25;;
70322;SDS011;57735;56.264;43.898;2023-12-20T03:01:41;3.72;;;1.90;;
70322;SDS011;57735;56.264;43.898;2023-12-20T03:04:13;4.97;;;2.53;;
70322;SDS011;57735;56.264;43.898;2023-12-20T03:06:44;4.50;;;2.33;;
70322;SDS011;57735;56.264;43.898;2023-12-20T03:09:14;4.90;;;2.72;;
70322;SDS011;57735;56.264;43.898;2023-12-20T03:11:46;3.20;;;1.92;;
70322;SDS011;57735;56.264;43.898;2023-12-20T03:14:19;6.88;;;2.72;;
70322;SDS011;57735;56.264;43.898;2023-12-20T03:16:52;5.35;;;2.30;;
70322;SDS011;57735;56.264;43.898;2023-12-20T03:19:23;4.10;;;2.05;;
70322;SDS011;57735;56.264;43.898;2023-12-20T03:21:54;3.22;;;1.85;;
70322;SDS011;57735;56.264;43.898;2023-12-20T03:24:24;6.72;;;2.33;;
70322;SDS011;57735;56.264;43.898;2023-12-20T03:26:57;4.05;;;2.40;;
70322;SDS011;57735;56.264;43.898;2023-12-20T03:29:30;5.05;;;2.20;;
70322;SDS011;57735;56.264;43.898;2023-12-20T03:32:01;3.65;;;2.13;;
70322;SDS011;57735;56.264;43.898;2023-12-20T03:34:32;3.22;;;1.98;;
70322;SDS011;57735;56.264;43.898;2023-12-20T03:37:03;4.32;;;1.98;;
70322;SDS011;57735;56.264;43.898;2023-12-20T03:39:34;2.65;;;1.70;;
70322;SDS011;57735;56.264;43.898;2023-12-20T03:42:05;2.85;;;1.73;;
70322;SDS011;57735;56.264;43.898;2023-12-20T03:44:38;2.88;;;1.60;;
70322;SDS011;57735;56.264;43.898;2023-12-20T03:47:10;3.75;;;1.90;;
70322;SDS011;57735;56.264;43.898;2023-12-20T03:49:41;6.03;;;2.40;;
70322;SDS011;57735;56.264;43.898;2023-12-20T03:52:14;3.88;;;2.03;;
70322;SDS011;57735;56.264;43.898;2023-12-20T03:54:45;5.15;;;2.67;;
70322;SDS011;57735;56.264;43.898;2023-12-20T03:57:15;4.53;;;2.45;;
70322;SDS011;57735;56.264;43.898;2023-12-20T03:59:46;7.63;;;3.28;;
70322;SDS011;57735;56.264;43.898;2023-12-20T04:02:19;5.38;;;2.85;;
70322;SDS011;57735;56.264;43.898;2023-12-20T04:04:51;5.90;;;3.13;;
70322;SDS011;57735;56.264;43.898;2023-12-20T04:07:26;6.40;;;3.03;;
70322;SDS011;57735;56.264;43.898;2023-12-20T04:09:57;7.40;;;3.15;;
70322;SDS011;57735;56.264;43.898;2023-12-20T04:12:28;6.32;;;3.13;;
70322;SDS011;57735;56.264;43.898;2023-12-20T04:15:01;5.47;;;2.92;;
70322;SDS011;57735;56.264;43.898;2023-12-20T04:17:35;7.05;;;2.65;;
70322;SDS011;57735;56.264;43.898;2023-12-20T04:20:06;6.20;;;2.88;;
70322;SDS011;57735;56.264;43.898;2023-12-20T04:22:38;5.40;;;2.67;;
70322;SDS011;57735;56.264;43.898;2023-12-20T04:25:09;3.97;;;2.35;;
70322;SDS011;57735;56.264;43.898;2023-12-20T04:27:40;6.13;;;2.20;;
70322;SDS011;57735;56.264;43.898;2023-12-20T04:30:11;6.53;;;2.80;;
70322;SDS011;57735;56.264;43.898;2023-12-20T04:32:42;4.47;;;2.25;;
70322;SDS011;57735;56.264;43.898;2023-12-20T04:35:13;4.82;;;2.30;;
70322;SDS011;57735;56.264;43.898;2023-12-20T04:37:44;5.97;;;2.47;;
70322;SDS011;57735;56.264;43.898;2023-12-20T04:40:17;4.90;;;2.60;;
70322;SDS011;57735;56.264;43.898;2023-12-20T04:42:49;5.07;;;2.17;;
70322;SDS011;57735;56.264;43.898;2023-12-20T04:45:20;6.07;;;3.00;;
70322;SDS011;57735;56.264;43.898;2023-12-20T04:47:51;4.93;;;2.63;;
70322;SDS011;57735;56.264;43.898;2023-12-20T04:50:22;5.07;;;2.50;;
70322;SDS011;57735;56.264;43.898;2023-12-20T04:52:53;7.40;;;3.47;;
70322;SDS011;57735;56.264;43.898;2023-12-20T04:55:23;4.45;;;2.70;;
70322;SDS011;57735;56.264;43.898;2023-12-20T04:57:54;3.80;;;2.65;;
70322;SDS011;57735;56.264;43.898;2023-12-20T05:00:26;6.55;;;3.05;;
70322;SDS011;57735;56.264;43.898;2023-12-20T05:02:57;6.60;;;3.38;;
70322;SDS011;57735;56.264;43.898;2023-12-20T05:05:28;7.93;;;3.42;;
70322;SDS011;57735;56.264;43.898;2023-12-20T05:07:59;6.78;;;3.30;;
70322;SDS011;57735;56.264;43.898;2023-12-20T05:10:30;5.82;;;3.08;;
70322;SDS011;57735;56.264;43.898;2023-12-20T05:13:00;7.28;;;3.13;;
70322;SDS011;57735;56.264;43.898;2023-12-20T05:15:31;6.18;;;3.20;;
70322;SDS011;57735;56.264;43.898;2023-12-20T05:18:02;6.57;;;3.40;;
70322;SDS011;57735;56.264;43.898;2023-12-20T05:20:34;6.45;;;3.40;;
70322;SDS011;57735;56.264;43.898;2023-12-20T05:23:08;6.10;;;3.17;;
70322;SDS011;57735;56.264;43.898;2023-12-20T05:25:38;5.65;;;3.35;;
70322;SDS011;57735;56.264;43.898;2023-12-20T05:28:10;7.18;;;3.15;;
70322;SDS011;57735;56.264;43.898;2023-12-20T05:30:40;10.27;;;4.07;;
70322;SDS011;57735;56.264;43.898;2023-12-20T05:33:11;15.55;;;5.13;;
70322;SDS011;57735;56.264;43.898;2023-12-20T05:35:42;13.57;;;5.65;;
70322;SDS011;57735;56.264;43.898;2023-12-20T05:38:16;8.57;;;4.53;;
70322;SDS011;57735;56.264;43.898;2023-12-20T05:40:47;7.35;;;3.83;;
70322;SDS011;57735;56.264;43.898;2023-12-20T05:43:21;11.68;;;5.45;;
70322;SDS011;57735;56.264;43.898;2023-12-20T05:45:51;13.98;;;6.05;;
70322;SDS011;57735;56.264;43.898;2023-12-20T05:48:22;17.48;;;4.78;;
70322;SDS011;57735;56.264;43.898;2023-12-20T05:50:53;11.90;;;5.32;;
70322;SDS011;57735;56.264;43.898;2023-12-20T05:53:24;11.32;;;5.82;;
70322;SDS011;57735;56.264;43.898;2023-12-20T05:55:55;11.00;;;5.50;;
70322;SDS011;57735;56.264;43.898;2023-12-20T05:58:25;11.48;;;5.07;;
70322;SDS011;57735;56.264;43.898;2023-12-20T06:00:56;7.43;;;4.60;;
70322;SDS011;57735;56.264;43.898;2023-12-20T06:03:27;11.13;;;5.00;;
70322;SDS011;57735;56.264;43.898;2023-12-20T06:05:58;17.95;;;5.65;;
70322;SDS011;57735;56.264;43.898;2023-12-20T06:08:30;16.38;;;6.50;;
70322;SDS011;57735;56.264;43.898;2023-12-20T06:11:04;26.77;;;7.82;;
70322;SDS011;57735;56.264;43.898;2023-12-20T06:13:35;27.27;;;8.82;;
70322;SDS011;57735;56.264;43.898;2023-12-20T06:16:09;21.30;;;6.80;;
70322;SDS011;57735;56.264;43.898;2023-12-20T06:18:40;19.27;;;6.40;;
70322;SDS011;57735;56.264;43.898;2023-12-20T06:21:10;22.13;;;6.95;;
70322;SDS011;57735;56.264;43.898;2023-12-20T06:23:43;15.70;;;6.70;;
70322;SDS011;57735;56.264;43.898;2023-12-20T06:26:14;54.22;;;24.23;;
70322;SDS011;57735;56.264;43.898;2023-12-20T06:28:45;14.32;;;7.18;;
70322;SDS011;57735;56.264;43.898;2023-12-20T06:31:16;27.63;;;9.02;;
70322;SDS011;57735;56.264;43.898;2023-12-20T06:33:49;25.60;;;9.80;;
70322;SDS011;57735;56.264;43.898;2023-12-20T06:36:27;49.28;;;27.80;;
70322;SDS011;57735;56.264;43.898;2023-12-20T06:38:58;17.92;;;6.30;;
70322;SDS011;57735;56.264;43.898;2023-12-20T06:41:29;19.52;;;7.97;;
70322;SDS011;57735;56.264;43.898;2023-12-20T06:44:00;10.40;;;4.93;;
70322;SDS011;57735;56.264;43.898;2023-12-20T06:46:33;27.75;;;8.82;;
70322;SDS011;57735;56.264;43.898;2023-12-20T06:49:05;24.75;;;6.60;;
70322;SDS011;57735;56.264;43.898;2023-12-20T06:51:36;13.80;;;6.13;;
70322;SDS011;57735;56.264;43.898;2023-12-20T06:54:07;11.45;;;4.50;;
70322;SDS011;57735;56.264;43.898;2023-12-20T06:56:38;14.60;;;5.47;;
70322;SDS011;57735;56.264;43.898;2023-12-20T06:59:09;25.67;;;6.60;;
70322;SDS011;57735;56.264;43.898;2023-12-20T07:01:40;9.02;;;4.63;;
70322;SDS011;57735;56.264;43.898;2023-12-20T07:04:10;10.38;;;4.75;;
70322;SDS011;57735;56.264;43.898;2023-12-20T07:06:41;7.63;;;3.35;;
70322;SDS011;57735;56.264;43.898;2023-12-20T07:09:13;9.68;;;4.90;;
70322;SDS011;57735;56.264;43.898;2023-12-20T07:11:44;8.00;;;3.80;;
70322;SDS011;57735;56.264;43.898;2023-12-20T07:14:14;8.88;;;3.50;;
70322;SDS011;57735;56.264;43.898;2023-12-20T07:16:45;6.80;;;3.55;;
70322;SDS011;57735;56.264;43.898;2023-12-20T07:19:16;8.70;;;3.60;;
70322;SDS011;57735;56.264;43.898;2023-12-20T07:21:47;6.20;;;3.55;;
70322;SDS011;57735;56.264;43.898;2023-12-20T07:24:18;4.90;;;2.80;;
70322;SDS011;57735;56.264;43.898;2023-12-20T07:26:49;7.28;;;3.25;;
70322;SDS011;57735;56.264;43.898;2023-12-20T07:29:21;7.55;;;2.42;;
70322;SDS011;57735;56.264;43.898;2023-12-20T07:31:54;5.15;;;2.53;;
70322;SDS011;57735;56.264;43.898;2023-12-20T07:34:25;4.07;;;2.13;;
70322;SDS011;57735;56.264;43.898;2023-12-20T07:36:57;3.38;;;2.10;;
70322;SDS011;57735;56.264;43.898;2023-12-20T07:39:31;4.25;;;2.10;;
70322;SDS011;57735;56.264;43.898;2023-12-20T07:44:37;4.07;;;2.40;;
70322;SDS011;57735;56.264;43.898;2023-12-20T07:47:08;5.13;;;2.08;;
70322;SDS011;57735;56.264;43.898;2023-12-20T07:49:42;3.58;;;2.03;;
70322;SDS011;57735;56.264;43.898;2023-12-20T07:52:15;4.35;;;2.00;;
70322;SDS011;57735;56.264;43.898;2023-12-20T07:54:46;4.32;;;2.58;;
70322;SDS011;57735;56.264;43.898;2023-12-20T07:57:17;3.25;;;1.80;;
70322;SDS011;57735;56.264;43.898;2023-12-20T07:59:50;5.88;;;2.42;;
70322;SDS011;57735;56.264;43.898;2023-12-20T08:02:21;4.47;;;2.10;;
70322;SDS011;57735;56.264;43.898;2023-12-20T08:04:52;5.28;;;2.25;;
70322;SDS011;57735;56.264;43.898;2023-12-20T08:07:22;2.65;;;1.70;;
70322;SDS011;57735;56.264;43.898;2023-12-20T08:09:54;8.23;;;2.83;;
70322;SDS011;57735;56.264;43.898;2023-12-20T08:12:27;2.70;;;1.45;;
70322;SDS011;57735;56.264;43.898;2023-12-20T08:14:58;2.97;;;1.80;;
70322;SDS011;57735;56.264;43.898;2023-12-20T08:17:31;4.97;;;1.75;;
70322;SDS011;57735;56.264;43.898;2023-12-20T08:20:02;4.00;;;1.80;;
70322;SDS011;57735;56.264;43.898;2023-12-20T08:22:34;3.53;;;1.52;;
70322;SDS011;57735;56.264;43.898;2023-12-20T08:25:05;8.15;;;2.17;;
70322;SDS011;57735;56.264;43.898;2023-12-20T08:27:42;2.70;;;1.88;;
70322;SDS011;57735;56.264;43.898;2023-12-20T08:30:12;4.32;;;1.85;;
70322;SDS011;57735;56.264;43.898;2023-12-20T08:32:43;6.68;;;2.10;;
70322;SDS011;57735;56.264;43.898;2023-12-20T08:35:15;5.10;;;2.20;;
70322;SDS011;57735;56.264;43.898;2023-12-20T08:37:45;4.47;;;1.90;;
70322;SDS011;57735;56.264;43.898;2023-12-20T08:40:18;3.67;;;2.00;;
70322;SDS011;57735;56.264;43.898;2023-12-20T08:42:50;4.18;;;1.83;;
70322;SDS011;57735;56.264;43.898;2023-12-20T08:45:21;2.65;;;1.58;;
70322;SDS011;57735;56.264;43.898;2023-12-20T08:47:55;3.50;;;1.88;;
70322;SDS011;57735;56.264;43.898;2023-12-20T08:50:27;6.63;;;2.42;;
70322;SDS011;57735;56.264;43.898;2023-12-20T08:52:58;3.53;;;2.10;;
70322;SDS011;57735;56.264;43.898;2023-12-20T08:55:29;4.78;;;2.20;;
70322;SDS011;57735;56.264;43.898;2023-12-20T08:58:04;3.75;;;1.50;;
70322;SDS011;57735;56.264;43.898;2023-12-20T09:00:37;7.95;;;2.60;;
70322;SDS011;57735;56.264;43.898;2023-12-20T09:03:09;6.30;;;1.73;;
70322;SDS011;57735;56.264;43.898;2023-12-20T09:05:40;3.67;;;1.88;;
70322;SDS011;57735;56.264;43.898;2023-12-20T09:08:11;4.18;;;1.95;;
70322;SDS011;57735;56.264;43.898;2023-12-20T09:10:42;3.42;;;1.33;;
70322;SDS011;57735;56.264;43.898;2023-12-20T09:13:16;3.75;;;1.70;;
70322;SDS011;57735;56.264;43.898;2023-12-20T09:15:47;3.83;;;1.42;;
70322;SDS011;57735;56.264;43.898;2023-12-20T09:18:18;4.78;;;1.90;;
70322;SDS011;57735;56.264;43.898;2023-12-20T09:20:52;3.53;;;1.60;;
70322;SDS011;57735;56.264;43.898;2023-12-20T09:23:23;5.72;;;1.45;;
70322;SDS011;57735;56.264;43.898;2023-12-20T09:25:56;3.50;;;1.63;;
70322;SDS011;57735;56.264;43.898;2023-12-20T09:28:26;3.80;;;2.13;;
70322;SDS011;57735;56.264;43.898;2023-12-20T09:31:00;4.20;;;1.60;;
70322;SDS011;57735;56.264;43.898;2023-12-20T09:33:30;2.22;;;1.40;;
70322;SDS011;57735;56.264;43.898;2023-12-20T09:36:02;3.20;;;1.77;;
70322;SDS011;57735;56.264;43.898;2023-12-20T09:38:33;3.97;;;1.63;;
70322;SDS011;57735;56.264;43.898;2023-12-20T09:41:06;6.32;;;2.03;;
70322;SDS011;57735;56.264;43.898;2023-12-20T09:43:40;5.90;;;2.13;;
70322;SDS011;57735;56.264;43.898;2023-12-20T09:46:12;5.43;;;2.15;;
70322;SDS011;57735;56.264;43.898;2023-12-20T09:48:45;2.63;;;1.50;;
70322;SDS011;57735;56.264;43.898;2023-12-20T09:51:16;3.10;;;1.70;;
70322;SDS011;57735;56.264;43.898;2023-12-20T09:53:47;3.47;;;2.50;;
70322;SDS011;57735;56.264;43.898;2023-12-20T09:56:19;3.80;;;2.58;;
70322;SDS011;57735;56.264;43.898;2023-12-20T09:58:51;5.72;;;3.25;;
70322;SDS011;57735;56.264;43.898;2023-12-20T10:01:22;7.20;;;3.60;;
70322;SDS011;57735;56.264;43.898;2023-12-20T10:03:54;6.53;;;3.70;;
70322;SDS011;57735;56.264;43.898;2023-12-20T10:06:27;5.60;;;2.90;;
70322;SDS011;57735;56.264;43.898;2023-12-20T10:08:59;5.32;;;2.55;;
70322;SDS011;57735;56.264;43.898;2023-12-20T10:11:32;4.47;;;2.25;;
70322;SDS011;57735;56.264;43.898;2023-12-20T10:16:38;4.28;;;2.70;;
70322;SDS011;57735;56.264;43.898;2023-12-20T10:19:08;4.80;;;2.80;;
70322;SDS011;57735;56.264;43.898;2023-12-20T10:21:39;6.05;;;2.88;;
70322;SDS011;57735;56.264;43.898;2023-12-20T10:24:16;5.45;;;2.60;;
70322;SDS011;57735;56.264;43.898;2023-12-20T10:26:48;3.42;;;2.17;;
70322;SDS011;57735;56.264;43.898;2023-12-20T10:29:35;4.63;;;2.40;;
70322;SDS011;57735;56.264;43.898;2023-12-20T10:32:26;4.10;;;1.77;;
70322;SDS011;57735;56.264;43.898;2023-12-20T10:34:58;7.18;;;3.22;;
70322;SDS011;57735;56.264;43.898;2023-12-20T10:37:29;5.28;;;2.20;;
70322;SDS011;57735;56.264;43.898;2023-12-20T10:40:00;6.88;;;2.10;;
70322;SDS011;57735;56.264;43.898;2023-12-20T10:42:36;4.95;;;2.20;;
70322;SDS011;57735;56.264;43.898;2023-12-20T10:45:07;3.05;;;1.83;;
70322;SDS011;57735;56.264;43.898;2023-12-20T10:47:40;4.30;;;2.03;;
70322;SDS011;57735;56.264;43.898;2023-12-20T10:50:12;3.67;;;2.33;;
70322;SDS011;57735;56.264;43.898;2023-12-20T10:52:43;4.93;;;2.10;;
70322;SDS011;57735;56.264;43.898;2023-12-20T10:55:16;3.33;;;1.90;;
70322;SDS011;57735;56.264;43.898;2023-12-20T10:57:46;2.22;;;1.80;;
70322;SDS011;57735;56.264;43.898;2023-12-20T11:00:23;3.67;;;2.30;;
70322;SDS011;57735;56.264;43.898;2023-12-20T11:02:57;2.63;;;1.60;;
70322;SDS011;57735;56.264;43.898;2023-12-20T11:05:42;2.75;;;1.50;;
70322;SDS011;57735;56.264;43.898;2023-12-20T11:11:24;3.45;;;1.70;;
70322;SDS011;57735;56.264;43.898;2023-12-20T11:14:02;3.60;;;1.90;;
70322;SDS011;57735;56.264;43.898;2023-12-20T11:16:37;3.45;;;2.05;;
70322;SDS011;57735;56.264;43.898;2023-12-20T11:19:10;5.70;;;2.47;;
70322;SDS011;57735;56.264;43.898;2023-12-20T11:21:43;4.85;;;2.25;;
70322;SDS011;57735;56.264;43.898;2023-12-20T11:24:17;4.90;;;1.88;;
70322;SDS011;57735;56.264;43.898;2023-12-20T11:26:55;5.35;;;2.30;;
70322;SDS011;57735;56.264;43.898;2023-12-20T11:37:41;5.43;;;2.47;;
70322;SDS011;57735;56.264;43.898;2023-12-20T11:40:17;8.15;;;3.30;;
70322;SDS011;57735;56.264;43.898;2023-12-20T11:42:50;6.20;;;2.53;;
70322;SDS011;57735;56.264;43.898;2023-12-20T11:45:23;6.07;;;3.03;;
70322;SDS011;57735;56.264;43.898;2023-12-20T11:47:55;11.88;;;5.18;;
70322;SDS011;57735;56.264;43.898;2023-12-20T11:50:28;6.97;;;3.83;;
70322;SDS011;57735;56.264;43.898;2023-12-20T11:53:00;4.35;;;2.95;;
70322;SDS011;57735;56.264;43.898;2023-12-20T11:55:31;6.57;;;2.95;;
70322;SDS011;57735;56.264;43.898;2023-12-20T11:58:04;6.90;;;3.55;;
70322;SDS011;57735;56.264;43.898;2023-12-20T12:00:35;6.43;;;3.35;;
70322;SDS011;57735;56.264;43.898;2023-12-20T12:03:06;5.75;;;3.22;;
70322;SDS011;57735;56.264;43.898;2023-12-20T12:05:37;7.50;;;3.40;;
70322;SDS011;57735;56.264;43.898;2023-12-20T12:08:08;5.30;;;3.25;;
70322;SDS011;57735;56.264;43.898;2023-12-20T12:10:39;9.18;;;3.03;;
70322;SDS011;57735;56.264;43.898;2023-12-20T12:13:13;7.33;;;3.63;;
70322;SDS011;57735;56.264;43.898;2023-12-20T12:15:47;9.13;;;3.92;;
70322;SDS011;57735;56.264;43.898;2023-12-20T12:18:18;6.15;;;3.00;;
70322;SDS011;57735;56.264;43.898;2023-12-20T12:20:49;5.70;;;2.85;;
70322;SDS011;57735;56.264;43.898;2023-12-20T12:23:23;6.40;;;3.00;;
70322;SDS011;57735;56.264;43.898;2023-12-20T12:25:55;6.50;;;2.95;;
70322;SDS011;57735;56.264;43.898;2023-12-20T12:28:26;7.57;;;3.30;;
70322;SDS011;57735;56.264;43.898;2023-12-20T12:30:59;13.70;;;4.22;;
70322;SDS011;57735;56.264;43.898;2023-12-20T12:33:30;11.23;;;3.60;;
70322;SDS011;57735;56.264;43.898;2023-12-20T12:36:01;8.63;;;3.40;;
70322;SDS011;57735;56.264;43.898;2023-12-20T12:38:34;9.40;;;4.20;;
70322;SDS011;57735;56.264;43.898;2023-12-20T12:41:05;9.90;;;3.95;;
70322;SDS011;57735;56.264;43.898;2023-12-20T12:43:40;10.60;;;3.78;;
70322;SDS011;57735;56.264;43.898;2023-12-20T12:46:11;7.10;;;3.97;;
70322;SDS011;57735;56.264;43.898;2023-12-20T12:48:43;9.63;;;4.40;;
70322;SDS011;57735;56.264;43.898;2023-12-20T12:51:17;7.75;;;3.92;;
70322;SDS011;57735;56.264;43.898;2023-12-20T12:53:48;10.48;;;4.03;;
70322;SDS011;57735;56.264;43.898;2023-12-20T12:56:19;8.20;;;3.60;;
70322;SDS011;57735;56.264;43.898;2023-12-20T12:58:50;8.55;;;3.97;;
70322;SDS011;57735;56.264;43.898;2023-12-20T13:01:21;7.90;;;3.58;;
70322;SDS011;57735;56.264;43.898;2023-12-20T13:03:52;11.02;;;3.55;;
70322;SDS011;57735;56.264;43.898;2023-12-20T13:06:25;8.35;;;3.47;;
70322;SDS011;57735;56.264;43.898;2023-12-20T13:08:56;8.30;;;3.58;;
70322;SDS011;57735;56.264;43.898;2023-12-20T13:11:27;6.72;;;3.20;;
70322;SDS011;57735;56.264;43.898;2023-12-20T13:13:58;7.03;;;3.20;;
70322;SDS011;57735;56.264;43.898;2023-12-20T13:16:28;8.00;;;3.10;;
70322;SDS011;57735;56.264;43.898;2023-12-20T13:19:00;11.07;;;3.45;;
70322;SDS011;57735;56.264;43.898;2023-12-20T13:21:30;5.20;;;3.03;;
70322;SDS011;57735;56.264;43.898;2023-12-20T13:24:06;4.53;;;2.65;;
70322;SDS011;57735;56.264;43.898;2023-12-20T13:26:40;6.78;;;2.85;;
70322;SDS011;57735;56.264;43.898;2023-12-20T13:29:11;7.38;;;2.90;;
70322;SDS011;57735;56.264;43.898;2023-12-20T13:31:47;6.20;;;2.72;;
70322;SDS011;57735;56.264;43.898;2023-12-20T13:34:21;6.43;;;3.20;;
70322;SDS011;57735;56.264;43.898;2023-12-20T13:36:52;6.10;;;3.30;;
70322;SDS011;57735;56.264;43.898;2023-12-20T13:39:25;9.90;;;3.42;;
70322;SDS011;57735;56.264;43.898;2023-12-20T13:41:56;9.10;;;3.83;;
70322;SDS011;57735;56.264;43.898;2023-12-20T13:44:27;9.95;;;3.97;;
70322;SDS011;57735;56.264;43.898;2023-12-20T13:46:58;8.27;;;3.05;;
70322;SDS011;57735;56.264;43.898;2023-12-20T13:49:31;8.38;;;3.75;;
70322;SDS011;57735;56.264;43.898;2023-12-20T13:52:02;6.25;;;3.00;;
70322;SDS011;57735;56.264;43.898;2023-12-20T13:54:34;9.73;;;3.88;;
70322;SDS011;57735;56.264;43.898;2023-12-20T13:57:05;8.88;;;4.38;;
70322;SDS011;57735;56.264;43.898;2023-12-20T13:59:37;10.10;;;4.38;;
70322;SDS011;57735;56.264;43.898;2023-12-20T14:02:08;13.15;;;5.00;;
70322;SDS011;57735;56.264;43.898;2023-12-20T14:04:39;10.27;;;4.60;;
70322;SDS011;57735;56.264;43.898;2023-12-20T14:07:10;12.05;;;4.70;;
70322;SDS011;57735;56.264;43.898;2023-12-20T14:09:41;11.00;;;3.95;;
70322;SDS011;57735;56.264;43.898;2023-12-20T14:12:16;6.80;;;3.28;;
70322;SDS011;57735;56.264;43.898;2023-12-20T14:14:47;9.75;;;3.75;;
70322;SDS011;57735;56.264;43.898;2023-12-20T14:17:20;15.05;;;4.55;;
70322;SDS011;57735;56.264;43.898;2023-12-20T14:19:52;10.75;;;4.22;;
70322;SDS011;57735;56.264;43.898;2023-12-20T14:22:25;12.05;;;4.22;;
70322;SDS011;57735;56.264;43.898;2023-12-20T14:24:56;5.22;;;2.60;;
70322;SDS011;57735;56.264;43.898;2023-12-20T14:27:27;8.75;;;3.63;;
70322;SDS011;57735;56.264;43.898;2023-12-20T14:29:58;6.80;;;3.85;;
70322;SDS011;57735;56.264;43.898;2023-12-20T14:32:31;7.57;;;3.70;;
70322;SDS011;57735;56.264;43.898;2023-12-20T14:35:05;9.77;;;3.25;;
70322;SDS011;57735;56.264;43.898;2023-12-20T14:37:36;7.45;;;3.47;;
70322;SDS011;57735;56.264;43.898;2023-12-20T14:40:11;10.43;;;3.95;;
70322;SDS011;57735;56.264;43.898;2023-12-20T14:42:46;6.93;;;3.75;;
70322;SDS011;57735;56.264;43.898;2023-12-20T14:45:20;11.98;;;5.03;;
70322;SDS011;57735;56.264;43.898;2023-12-20T14:47:51;8.73;;;3.85;;
70322;SDS011;57735;56.264;43.898;2023-12-20T14:50:22;7.43;;;3.58;;
70322;SDS011;57735;56.264;43.898;2023-12-20T14:52:53;7.97;;;4.07;;
70322;SDS011;57735;56.264;43.898;2023-12-20T14:55:25;7.53;;;3.28;;
70322;SDS011;57735;56.264;43.898;2023-12-20T14:57:59;7.43;;;3.97;;
70322;SDS011;57735;56.264;43.898;2023-12-20T15:00:30;7.93;;;3.67;;
70322;SDS011;57735;56.264;43.898;2023-12-20T15:03:01;7.93;;;4.07;;
70322;SDS011;57735;56.264;43.898;2023-12-20T15:05:32;9.55;;;3.50;;
70322;SDS011;57735;56.264;43.898;2023-12-20T15:08:06;8.17;;;3.83;;
70322;SDS011;57735;56.264;43.898;2023-12-20T15:10:37;9.43;;;4.25;;
70322;SDS011;57735;56.264;43.898;2023-12-20T15:13:08;7.95;;;3.42;;
70322;SDS011;57735;56.264;43.898;2023-12-20T15:15:41;9.90;;;4.03;;
70322;SDS011;57735;56.264;43.898;2023-12-20T15:18:12;8.05;;;3.78;;